Time;durP1;ratioP1;P1;durP2;ratioP2;P2;SDS_P1;SDS_P2;PMS_P1;PMS_P2;Temp;Humidity;BMP_temperature;BMP_pressure;BME280_temperature;BME280_humidity;BME280_pressure;Samples;Min_cycle;Max_cycle;Signal;HPM_P1;HPM_P2
2021/03/02 00:02:15;;;;;;;157.47;60.12;;;;;;;0.87;81.04;102632.22;1732406;80;25873;-60
2021/03/02 00:04:45;;;;;;;150.35;57.25;;;;;;;0.86;81.00;102637.03;1745341;80;25840;-60
2021/03/02 00:07:15;;;;;;;144.43;59.50;;;;;;;0.86;81.03;102633.97;1753265;79;26164;-61
2021/03/02 00:09:44;;;;;;;144.93;57.75;;;;;;;0.87;81.07;102632.22;1746535;79;25901;-61
2021/03/02 00:12:14;;;;;;;148.68;58.15;;;;;;;0.89;81.04;102641.08;1727483;80;28497;-60
2021/03/02 00:14:42;;;;;;;149.00;57.67;;;;;;;0.88;81.02;102637.97;1747260;79;25876;-61
2021/03/02 00:17:52;;;;;;;151.37;58.90;;;;;;;0.86;81.09;102637.92;1757865;79;25883;-60
2021/03/02 00:20:23;;;;;;;145.80;57.10;;;;;;;0.87;81.14;102637.08;1741856;79;26082;-60
2021/03/02 00:23:01;;;;;;;136.95;58.55;;;;;;;0.89;81.15;102639.33;1751421;79;26092;-61
2021/03/02 00:25:44;;;;;;;154.93;59.18;;;;;;;0.89;81.18;102635.38;1723017;80;27904;-61
2021/03/02 00:28:11;;;;;;;151.97;61.18;;;;;;;0.88;81.15;102636.65;1746472;79;26839;-60
2021/03/02 00:30:39;;;;;;;148.85;57.62;;;;;;;0.84;81.09;102635.67;1759897;78;25891;-61
2021/03/02 00:33:09;;;;;;;164.00;61.55;;;;;;;0.84;81.11;102632.13;1748776;79;26483;-60
2021/03/02 00:35:37;;;;;;;149.57;59.35;;;;;;;0.80;81.11;102617.95;1745572;80;25869;-60
2021/03/02 00:38:05;;;;;;;162.57;63.08;;;;;;;0.79;81.07;102625.41;1746106;80;27519;-61
2021/03/02 00:40:33;;;;;;;151.42;58.35;;;;;;;0.75;81.10;102623.95;1751752;79;26002;-60
2021/03/02 00:43:01;;;;;;;161.97;63.35;;;;;;;0.74;81.12;102623.06;1743318;80;26355;-60
2021/03/02 00:45:29;;;;;;;149.40;60.65;;;;;;;0.73;81.19;102625.23;1752427;79;26002;-61
2021/03/02 00:47:57;;;;;;;167.25;63.20;;;;;;;0.72;81.22;102614.20;1736955;79;25831;-60
2021/03/02 00:50:27;;;;;;;153.80;61.18;;;;;;;0.68;81.20;102605.73;1749574;79;27436;-61
2021/03/02 00:52:56;;;;;;;170.00;62.90;;;;;;;0.65;81.19;102602.58;1744732;80;25895;-60
2021/03/02 00:55:24;;;;;;;172.10;64.77;;;;;;;0.62;81.20;102597.22;1752854;79;25831;-60
2021/03/02 00:57:51;;;;;;;155.55;60.98;;;;;;;0.61;81.26;102603.34;1747108;80;26309;-60
2021/03/02 01:00:20;;;;;;;166.43;61.90;;;;;;;0.60;81.28;102600.23;1745185;79;26480;-60
2021/03/02 01:02:48;;;;;;;167.22;63.70;;;;;;;0.58;81.28;102597.08;1751489;79;27985;-60
2021/03/02 01:05:17;;;;;;;152.97;58.52;;;;;;;0.56;81.28;102594.83;1770871;79;25892;-60
2021/03/02 01:07:45;;;;;;;161.15;59.08;;;;;;;0.55;81.30;102591.72;1743837;79;26417;-61
2021/03/02 01:10:14;;;;;;;159.82;59.85;;;;;;;0.51;81.20;102593.80;1767719;79;26037;-60
2021/03/02 01:12:41;;;;;;;170.07;65.83;;;;;;;0.49;81.30;102599.45;1744714;80;25830;-60
2021/03/02 01:15:11;;;;;;;154.63;60.15;;;;;;;0.48;81.52;102600.30;1751314;79;27386;-60
2021/03/02 01:17:39;;;;;;;155.37;61.23;;;;;;;0.45;81.35;102598.47;1761370;80;25868;-60
2021/03/02 01:20:08;;;;;;;157.12;62.03;;;;;;;0.45;81.36;102594.94;1767564;79;25896;-60
2021/03/02 01:22:36;;;;;;;154.60;59.80;;;;;;;0.43;81.38;102595.32;1747094;80;25824;-60
2021/03/02 01:25:13;;;;;;;176.32;69.00;;;;;;;0.42;81.41;102590.47;1736597;80;25842;-60
2021/03/02 01:27:41;;;;;;;158.72;61.75;;;;;;;0.42;81.46;102594.84;1744774;80;27819;-60
2021/03/02 01:30:12;;;;;;;159.20;61.48;;;;;;;0.41;81.51;102587.36;1739327;80;25950;-60
2021/03/02 01:32:40;;;;;;;170.68;60.73;;;;;;;0.42;81.51;102594.42;1750540;80;25818;-60
2021/03/02 01:35:11;;;;;;;175.32;63.98;;;;;;;0.39;81.50;102581.58;1737937;80;25892;-60
2021/03/02 01:37:39;;;;;;;161.32;61.75;;;;;;;0.37;81.44;102581.95;1737582;80;25851;-61
2021/03/02 01:40:14;;;;;;;157.05;60.58;;;;;;;0.36;81.53;102581.48;1740346;80;27820;-60
2021/03/02 01:42:43;;;;;;;146.07;60.78;;;;;;;0.35;81.59;102575.31;1723856;80;26005;-60
2021/03/02 01:45:17;;;;;;;156.35;59.83;;;;;;;0.33;81.50;102573.05;1744103;80;25923;-60
2021/03/02 01:47:50;;;;;;;150.57;57.90;;;;;;;0.32;81.58;102569.95;1752097;79;26236;-61
2021/03/02 01:50:21;;;;;;;162.27;61.75;;;;;;;0.31;81.58;102569.05;1751360;79;26544;-61
2021/03/02 01:52:51;;;;;;;153.18;60.40;;;;;;;0.28;81.51;102565.01;1758538;79;27384;-60
2021/03/02 01:55:19;;;;;;;154.40;59.60;;;;;;;0.25;81.62;102567.55;1741769;80;26289;-61
2021/03/02 01:57:46;;;;;;;137.92;53.60;;;;;;;0.25;81.63;102566.66;1751081;77;25876;-61
2021/03/02 02:00:22;;;;;;;149.90;58.87;;;;;;;0.23;81.52;102569.25;1742345;80;26042;-60
2021/03/02 02:03:23;;;;;;;155.87;60.10;;;;;;;0.20;81.66;102567.84;1744453;80;26565;-60
2021/03/02 02:05:55;;;;;;;;;;;;;;;0.20;81.66;102565.20;1738823;80;27750;-60
2021/03/02 02:08:28;;;;;;;148.13;57.13;;;;;;;0.19;81.72;102563.42;1765207;79;25833;-60
2021/03/02 02:11:00;;;;;;;163.57;59.27;;;;;;;0.16;81.68;102562.44;1746509;80;25750;-60
2021/03/02 02:13:33;;;;;;;151.42;61.77;;;;;;;0.16;81.72;102573.88;1736533;80;26700;-62
2021/03/02 02:16:06;;;;;;;153.80;57.90;;;;;;;0.13;81.74;102568.51;1735292;80;25887;-62
2021/03/02 02:18:36;;;;;;;146.37;59.35;;;;;;;0.13;81.81;102572.46;1763672;80;27454;-61
2021/03/02 02:21:12;;;;;;;158.20;57.73;;;;;;;0.14;81.87;102578.20;1731154;80;25749;-62
2021/03/02 02:24:03;;;;;;;161.35;60.25;;;;;;;0.15;81.86;102580.00;1732665;80;26011;-59
2021/03/02 02:26:56;;;;;;;155.07;56.92;;;;;;;0.16;81.89;102584.42;1740092;80;25851;-59
2021/03/02 02:29:31;;;;;;;159.18;59.38;;;;;;;0.17;81.89;102590.59;1734779;80;25761;-59
2021/03/02 02:32:01;;;;;;;142.65;54.77;;;;;;;0.16;81.89;102586.16;1737157;80;27824;-59
2021/03/02 02:34:35;;;;;;;146.93;55.65;;;;;;;0.17;81.95;102586.21;1735187;80;25806;-62
2021/03/02 02:37:06;;;;;;;171.45;62.20;;;;;;;0.17;81.96;102576.09;1730758;80;25880;-60
2021/03/02 02:39:35;;;;;;;167.75;63.25;;;;;;;0.16;81.92;102571.23;1734173;81;25804;-59
2021/03/02 02:42:05;;;;;;;176.02;65.30;;;;;;;0.15;81.92;102570.77;1735532;80;26440;-62
2021/03/02 02:44:36;;;;;;;174.97;66.30;;;;;;;0.15;81.91;102567.23;1762574;79;27035;-62
2021/03/02 02:47:04;;;;;;;177.70;63.17;;;;;;;0.14;81.96;102562.81;1734714;80;26223;-62
2021/03/02 02:49:34;;;;;;;169.60;61.13;;;;;;;0.13;81.90;102557.06;1734115;79;25762;-62
2021/03/02 02:52:05;;;;;;;152.02;57.93;;;;;;;0.11;81.91;102556.13;1721011;79;25862;-61
2021/03/02 02:54:33;;;;;;;154.87;55.60;;;;;;;0.10;81.87;102551.28;1732965;80;26126;-62
2021/03/02 02:57:01;;;;;;;138.15;53.75;;;;;;;0.07;81.83;102555.14;1741891;80;27761;-61
2021/03/02 02:59:33;;;;;;;145.68;53.55;;;;;;;0.05;81.91;102559.90;1737279;80;26376;-61
2021/03/02 03:02:04;;;;;;;149.97;57.75;;;;;;;0.05;81.95;102560.80;1731747;80;25833;-60
2021/03/02 03:04:42;;;;;;;148.20;57.00;;;;;;;0.06;82.02;102562.58;1728981;80;25793;-60
2021/03/02 03:07:26;;;;;;;138.85;55.03;;;;;;;0.06;81.99;102561.27;1728156;80;25845;-60
2021/03/02 03:09:56;;;;;;;151.75;60.58;;;;;;;0.06;82.00;102569.59;1738451;81;28086;-61
2021/03/02 03:12:27;;;;;;;153.65;59.30;;;;;;;0.05;82.03;102562.11;1731679;80;26472;-61
2021/03/02 03:15:03;;;;;;;163.65;58.83;;;;;;;0.03;82.01;102557.22;1755400;79;25830;-60
2021/03/02 03:17:39;;;;;;;159.45;57.53;;;;;;;0.01;82.03;102564.19;1724519;80;26145;-60
2021/03/02 03:20:13;;;;;;;150.95;60.40;;;;;;;0.00;82.09;102554.52;1735450;81;25857;-60
2021/03/02 03:22:42;;;;;;;142.87;59.10;;;;;;;0.00;82.11;102558.48;1730161;80;28015;-61
2021/03/02 03:25:13;;;;;;;133.25;52.75;;;;;;;-0.02;82.06;102553.16;1726596;80;26037;-60
2021/03/02 03:27:48;;;;;;;140.68;53.73;;;;;;;-0.05;81.94;102553.06;1736709;80;25963;-60
2021/03/02 03:30:17;;;;;;;132.63;54.25;;;;;;;-0.07;82.04;102543.32;1757133;79;25896;-60
2021/03/02 03:32:49;;;;;;;144.75;56.85;;;;;;;-0.08;82.01;102546.80;1735456;80;25800;-60
2021/03/02 03:35:18;;;;;;;143.07;55.43;;;;;;;-0.11;81.99;102541.02;1718224;80;27355;-60
2021/03/02 03:37:46;;;;;;;145.47;56.92;;;;;;;-0.13;82.04;102545.77;1748142;79;25811;-60
2021/03/02 03:40:15;;;;;;;149.65;58.02;;;;;;;-0.16;82.02;102546.99;1758933;79;26085;-60
2021/03/02 03:42:43;;;;;;;154.15;58.87;;;;;;;-0.19;82.07;102549.53;1730929;80;25892;-60
2021/03/02 03:45:13;;;;;;;140.00;55.03;;;;;;;-0.24;82.00;102548.50;1739545;80;25808;-61
2021/03/02 03:47:41;;;;;;;134.85;52.10;;;;;;;-0.27;82.01;102541.81;1728497;80;27266;-60
2021/03/02 03:50:10;;;;;;;147.40;55.50;;;;;;;-0.29;82.05;102543.08;1762499;79;25816;-60
2021/03/02 03:52:42;;;;;;;153.27;54.90;;;;;;;-0.34;82.04;102538.98;1748855;79;25877;-60
2021/03/02 03:55:14;;;;;;;135.85;54.67;;;;;;;-0.36;82.10;102537.16;1749751;79;26258;-59
2021/03/02 03:57:43;;;;;;;149.15;55.83;;;;;;;-0.39;82.04;102536.62;1741557;81;25388;-60
2021/03/02 04:00:14;;;;;;;148.53;59.25;;;;;;;-0.42;82.09;102541.80;1758688;79;27245;-60
2021/03/02 04:02:43;;;;;;;143.97;52.60;;;;;;;-0.44;82.23;102536.02;1751245;79;33628;-60
2021/03/02 04:05:14;;;;;;;141.03;55.40;;;;;;;-0.44;82.18;102531.64;1731799;80;25914;-60
2021/03/02 04:07:43;;;;;;;143.05;51.55;;;;;;;-0.45;82.18;102525.00;1737571;79;34080;-60
2021/03/02 04:10:12;;;;;;;128.10;50.15;;;;;;;-0.47;82.18;102528.91;1730994;80;25856;-60
2021/03/02 04:12:45;;;;;;;156.37;59.80;;;;;;;-0.50;82.20;102523.55;1771744;79;27329;-60
2021/03/02 04:15:17;;;;;;;141.92;55.92;;;;;;;-0.52;82.26;102519.07;1738017;80;26152;-60
2021/03/02 04:17:57;;;;;;;143.57;53.55;;;;;;;-0.52;82.26;102517.75;1734294;80;25965;-60
2021/03/02 04:20:26;;;;;;;136.15;52.65;;;;;;;-0.54;82.27;102514.18;1736081;80;26159;-60
2021/03/02 04:22:56;;;;;;;135.57;55.03;;;;;;;-0.68;82.26;102500.14;1727568;80;25838;-60
2021/03/02 04:25:24;;;;;;;150.75;57.78;;;;;;;-0.55;82.31;102530.41;1760832;79;27499;-60
2021/03/02 04:27:52;;;;;;;157.60;59.38;;;;;;;-0.55;82.38;102534.35;1722529;80;26232;-60
2021/03/02 04:30:23;;;;;;;149.38;54.50;;;;;;;-0.55;82.39;102533.45;1740549;80;25880;-60
2021/03/02 04:32:51;;;;;;;144.62;53.68;;;;;;;-0.57;82.42;102528.14;1743758;81;33046;-60
2021/03/02 04:35:19;;;;;;;144.82;56.13;;;;;;;-0.56;82.41;102543.10;1757507;79;25824;-60
2021/03/02 04:37:47;;;;;;;135.10;55.15;;;;;;;-0.57;82.45;102543.95;1739721;80;28237;-60
2021/03/02 04:40:16;;;;;;;135.93;52.95;;;;;;;-0.56;82.49;102543.10;1743585;79;25878;-60
2021/03/02 04:42:44;;;;;;;141.88;54.27;;;;;;;-0.54;82.51;102548.42;1737919;80;25942;-60
2021/03/02 04:45:14;;;;;;;136.10;54.98;;;;;;;-0.54;82.53;102541.83;1711789;80;26535;-60
2021/03/02 04:47:45;;;;;;;137.55;53.85;;;;;;;-0.53;82.51;102548.89;1708965;80;25883;-60
2021/03/02 04:50:15;;;;;;;131.35;51.28;;;;;;;-0.53;82.53;102540.56;1770537;79;27404;-60
2021/03/02 04:52:44;;;;;;;138.65;54.90;;;;;;;-0.51;82.48;102552.05;1743557;80;25793;-60
2021/03/02 04:55:13;;;;;;;141.37;56.42;;;;;;;-0.52;82.53;102554.20;1769168;79;26030;-60
2021/03/02 04:57:41;;;;;;;144.25;54.00;;;;;;;-0.51;82.58;102556.42;1749215;80;26077;-60
2021/03/02 05:00:11;;;;;;;135.63;51.28;;;;;;;-0.49;82.60;102562.63;1710643;80;25934;-60
2021/03/02 05:02:38;;;;;;;134.47;54.60;;;;;;;-0.49;82.58;102555.63;1743242;80;27473;-60
2021/03/02 05:05:08;;;;;;;137.00;52.55;;;;;;;-0.47;82.63;102550.41;1706213;82;25922;-60
2021/03/02 05:07:35;;;;;;;129.78;51.80;;;;;;;-0.43;82.71;102550.98;1739146;80;25842;-60
2021/03/02 05:10:06;;;;;;;137.18;51.80;;;;;;;-0.42;82.64;102554.08;1739996;80;25878;-59
2021/03/02 05:12:33;;;;;;;149.53;53.03;;;;;;;-0.39;82.67;102559.02;1746079;80;25895;-59
2021/03/02 05:15:04;;;;;;;123.13;47.75;;;;;;;-0.37;82.69;102565.23;1733798;80;45576;-59
2021/03/02 05:17:32;;;;;;;133.47;48.95;;;;;;;-0.35;82.66;102549.05;1741553;79;25928;-60
2021/03/02 05:20:00;;;;;;;125.40;50.78;;;;;;;-0.34;82.68;102556.11;1750833;79;25792;-59
2021/03/02 05:22:28;;;;;;;123.82;49.83;;;;;;;-0.34;82.67;102553.48;1735764;80;26027;-59
2021/03/02 05:24:56;;;;;;;129.47;53.78;;;;;;;-0.34;82.66;102565.34;1747372;80;25935;-59
2021/03/02 05:27:23;;;;;;;127.72;49.85;;;;;;;-0.33;82.66;102560.96;1744294;79;27468;-58
2021/03/02 05:29:51;;;;;;;132.95;52.70;;;;;;;-0.32;82.67;102557.91;1713491;80;25959;-58
2021/03/02 05:32:19;;;;;;;141.70;54.73;;;;;;;-0.33;82.69;102555.69;1742095;80;26403;-58
2021/03/02 05:34:47;;;;;;;147.00;57.38;;;;;;;-0.35;82.70;102547.73;1770710;79;25809;-57
2021/03/02 05:37:14;;;;;;;137.05;53.17;;;;;;;-0.35;82.72;102545.10;1772423;79;25951;-58
2021/03/02 05:39:42;;;;;;;136.22;52.05;;;;;;;-0.35;82.71;102545.10;1742280;80;26168;-59
2021/03/02 05:42:10;;;;;;;123.82;49.10;;;;;;;-0.35;82.77;102541.15;1744898;79;25819;-61
2021/03/02 05:44:38;;;;;;;124.50;51.30;;;;;;;-0.35;82.75;102541.15;1747679;80;25767;-58
2021/03/02 05:47:09;;;;;;;117.77;48.55;;;;;;;-0.34;82.78;102549.53;1716609;82;25968;-61
2021/03/02 05:49:37;;;;;;;115.55;46.45;;;;;;;-0.33;82.81;102551.73;1714741;80;25943;-61
2021/03/02 05:52:05;;;;;;;120.13;46.70;;;;;;;-0.34;82.81;102542.05;1721744;80;25946;-58
2021/03/02 05:54:33;;;;;;;104.20;46.00;;;;;;;-0.29;82.86;102548.78;1710547;80;26418;-58
2021/03/02 05:57:01;;;;;;;124.07;50.10;;;;;;;-0.28;82.79;102549.25;1736838;80;26240;-60
2021/03/02 05:59:29;;;;;;;129.10;49.33;;;;;;;-0.29;82.84;102550.98;1742820;79;26458;-58
2021/03/02 06:01:58;;;;;;;123.50;48.08;;;;;;;-0.27;82.87;102548.41;1744766;79;25918;-58
2021/03/02 06:04:26;;;;;;;118.70;49.42;;;;;;;-0.24;82.87;102553.77;1748042;79;27869;-58
2021/03/02 06:07:01;;;;;;;122.65;48.17;;;;;;;-0.22;82.88;102549.44;1720744;81;25800;-60
2021/03/02 06:09:30;;;;;;;128.87;51.58;;;;;;;-0.21;82.90;102548.59;1713868;81;26068;-58
2021/03/02 06:12:04;;;;;;;119.00;49.15;;;;;;;-0.19;82.90;102557.44;1777535;79;26814;-58
2021/03/02 06:14:35;;;;;;;123.02;50.23;;;;;;;-0.20;82.85;102554.33;1727374;80;25951;-60
2021/03/02 06:17:05;;;;;;;123.80;49.20;;;;;;;-0.21;82.87;102553.44;1776112;79;27586;-61
2021/03/02 06:19:41;;;;;;;112.40;46.25;;;;;;;-0.22;82.83;102560.88;1744438;79;25888;-62
2021/03/02 06:22:36;;;;;;;125.33;50.52;;;;;;;-0.21;82.78;102565.30;1752335;79;26204;-60
2021/03/02 06:25:07;;;;;;;134.12;51.45;;;;;;;-0.21;82.84;102564.41;1743736;79;26439;-60
2021/03/02 06:27:39;;;;;;;;;;;;;;;-0.20;82.89;102555.23;1726167;79;26256;-58
2021/03/02 06:30:16;;;;;;;133.90;50.65;;;;;;;-0.19;82.90;102554.38;1752430;79;27750;-58
2021/03/02 06:32:52;;;;;;;135.88;52.27;;;;;;;-0.17;82.89;102546.10;1746340;79;25830;-58
2021/03/02 06:35:42;;;;;;;128.75;50.40;;;;;;;-0.16;82.92;102546.99;1730783;80;25894;-59
2021/03/02 06:38:09;;;;;;;140.35;51.15;;;;;;;-0.14;82.95;102550.57;1737021;80;26671;-58
2021/03/02 06:40:48;;;;;;;125.25;49.15;;;;;;;-0.09;82.97;102555.56;1723527;81;25876;-58
2021/03/02 06:43:38;;;;;;;125.35;48.55;;;;;;;-0.05;82.99;102561.39;1761985;79;27357;-59
2021/03/02 06:46:09;;;;;;;133.15;52.98;;;;;;;-0.01;82.95;102565.91;1747279;80;25850;-59
2021/03/02 06:48:59;;;;;;;134.47;52.67;;;;;;;0.04;83.00;102573.92;1740859;80;26014;-59
2021/03/02 06:51:34;;;;;;;125.90;49.10;;;;;;;0.09;83.03;102578.92;1734502;80;25895;-58
2021/03/02 06:54:11;;;;;;;119.02;47.85;;;;;;;0.14;83.11;102580.84;1739183;80;25877;-59
2021/03/02 06:56:40;;;;;;;125.90;52.15;;;;;;;0.21;83.10;102580.61;1732760;81;27376;-59
2021/03/02 06:59:19;;;;;;;123.75;49.93;;;;;;;0.26;83.06;102575.94;1735831;80;25827;-59
2021/03/02 07:01:49;;;;;;;138.68;52.23;;;;;;;0.32;83.12;102576.55;1718430;80;26219;-59
2021/03/02 07:04:20;;;;;;;143.90;54.38;;;;;;;0.38;83.19;102576.72;1760827;79;25991;-60
2021/03/02 07:06:54;;;;;;;;;;;;;;;0.46;83.20;102579.16;1741753;81;26458;-61
2021/03/02 07:09:21;;;;;;;129.93;50.25;;;;;;;0.54;83.20;102579.37;1736733;80;27791;-58
2021/03/02 07:11:50;;;;;;;121.15;47.17;;;;;;;0.56;83.20;102572.40;1739442;80;26211;-60
2021/03/02 07:14:19;;;;;;;113.05;45.48;;;;;;;0.61;83.20;102579.59;1741607;80;25912;-58
2021/03/02 07:16:48;;;;;;;115.90;46.15;;;;;;;0.69;83.25;102578.91;1737755;80;26283;-58
2021/03/02 07:19:19;;;;;;;130.37;49.30;;;;;;;0.75;83.25;102578.66;1731597;80;25761;-59
2021/03/02 07:21:53;;;;;;;126.82;49.10;;;;;;;0.82;83.23;102577.08;1733005;80;27297;-58
2021/03/02 07:24:30;;;;;;;116.35;46.48;;;;;;;0.88;83.26;102572.86;1741479;80;25855;-59
2021/03/02 07:27:02;;;;;;;111.62;47.58;;;;;;;0.94;83.30;102573.03;1740953;80;25925;-58
2021/03/02 07:29:30;;;;;;;110.60;44.58;;;;;;;1.02;83.27;102577.62;1735842;80;26771;-58
2021/03/02 07:31:59;;;;;;;106.15;46.37;;;;;;;1.10;83.33;102581.36;1736121;80;26094;-59
2021/03/02 07:34:27;;;;;;;112.92;44.58;;;;;;;1.19;83.36;102583.81;1734896;80;28315;-58
2021/03/02 07:36:55;;;;;;;117.75;47.13;;;;;;;1.26;83.37;102572.98;1760256;79;25789;-58
2021/03/02 07:39:25;;;;;;;110.85;45.88;;;;;;;1.34;83.40;102574.06;1735592;80;25919;-58
2021/03/02 07:41:53;;;;;;;111.08;43.38;;;;;;;1.42;83.45;102577.80;1730333;81;25919;-58
2021/03/02 07:44:21;;;;;;;97.20;42.90;;;;;;;1.53;83.48;102578.95;1732546;80;25821;-58
2021/03/02 07:46:55;;;;;;;105.63;42.70;;;;;;;1.59;83.47;102578.20;1731616;81;27383;-59
2021/03/02 07:49:32;;;;;;;98.05;43.78;;;;;;;1.66;83.47;102578.82;1720001;79;26070;-58
2021/03/02 07:52:09;;;;;;;103.50;42.40;;;;;;;1.72;83.50;102588.22;1748902;80;26393;-59
2021/03/02 07:54:37;;;;;;;107.97;43.95;;;;;;;1.80;83.51;102576.51;1733577;80;26367;-58
2021/03/02 07:57:18;;;;;;;97.40;42.90;;;;;;;1.86;83.50;102581.51;1737871;80;25833;-59
2021/03/02 07:59:49;;;;;;;110.75;42.80;;;;;;;1.91;83.49;102581.61;1732262;80;28405;-59
2021/03/02 08:02:22;;;;;;;100.90;41.70;;;;;;;1.97;83.53;102586.15;1720626;80;26073;-60
2021/03/02 08:04:52;;;;;;;101.92;42.38;;;;;;;2.01;83.52;102588.90;1723100;80;25959;-59
2021/03/02 08:07:24;;;;;;;107.53;43.93;;;;;;;2.06;83.58;102589.00;1731086;80;25991;-59
2021/03/02 08:09:58;;;;;;;100.15;43.40;;;;;;;2.10;83.62;102578.95;1731896;80;25953;-59
2021/03/02 08:12:33;;;;;;;90.10;40.67;;;;;;;2.14;83.61;102577.73;1733238;80;27876;-60
2021/03/02 08:15:15;;;;;;;98.78;41.08;;;;;;;2.17;83.58;102576.48;1763388;79;25845;-60
2021/03/02 08:17:43;;;;;;;98.42;43.42;;;;;;;2.20;83.61;102565.08;1786310;77;26155;-59
2021/03/02 08:20:11;;;;;;;103.67;41.63;;;;;;;2.27;83.72;102564.34;1773065;78;25911;-61
2021/03/02 08:22:46;;;;;;;94.05;40.90;;;;;;;2.35;83.70;102564.50;1771335;78;26795;-60
2021/03/02 08:25:27;;;;;;;91.95;38.25;;;;;;;2.42;83.77;102574.36;1789646;77;27900;-59
2021/03/02 08:28:00;;;;;;;100.75;41.65;;;;;;;2.46;83.70;102577.10;1769962;78;26121;-60
2021/03/02 08:30:37;;;;;;;94.30;41.48;;;;;;;2.51;83.70;102574.55;1765694;78;25901;-60
2021/03/02 08:33:13;;;;;;;90.40;39.00;;;;;;;2.57;83.70;102573.34;1761397;78;26195;-60
2021/03/02 08:35:42;;;;;;;91.75;42.27;;;;;;;2.66;83.71;102577.47;1761990;77;26276;-60
2021/03/02 08:38:13;;;;;;;95.20;41.85;;;;;;;2.69;83.63;102572.23;1765297;78;27541;-61
2021/03/02 08:40:48;;;;;;;95.12;40.80;;;;;;;2.73;83.63;102575.41;1770314;78;26305;-59
2021/03/02 08:43:25;;;;;;;97.30;43.17;;;;;;;2.81;83.65;102575.55;1768588;77;25910;-60
2021/03/02 08:46:01;;;;;;;95.60;42.15;;;;;;;2.87;83.65;102573.03;1761994;77;26020;-61
2021/03/02 08:48:34;;;;;;;100.47;42.08;;;;;;;2.93;83.62;102570.06;1732954;79;25916;-61
2021/03/02 08:51:05;;;;;;;102.90;41.02;;;;;;;3.02;83.64;102571.09;1783882;77;27734;-61
2021/03/02 08:53:48;;;;;;;104.63;42.80;;;;;;;3.06;83.59;102575.59;1769770;78;26042;-61
2021/03/02 08:56:25;;;;;;;99.17;42.88;;;;;;;3.13;83.59;102577.05;1760996;78;25787;-62
2021/03/02 08:59:05;;;;;;;95.30;38.53;;;;;;;3.23;83.59;102575.45;1765878;78;26190;-61
2021/03/02 09:01:38;;;;;;;93.50;40.48;;;;;;;3.32;83.59;102572.97;1755617;78;25949;-61
2021/03/02 09:04:19;;;;;;;91.45;41.48;;;;;;;3.42;83.59;102574.91;1760709;78;27953;-60
2021/03/02 09:06:49;;;;;;;93.15;41.25;;;;;;;3.53;83.59;102572.44;1775231;78;26757;-61
2021/03/02 09:09:24;;;;;;;98.55;41.35;;;;;;;3.64;83.51;102563.33;1766863;78;25868;-61
2021/03/02 09:11:58;;;;;;;93.00;41.25;;;;;;;3.73;83.48;102568.77;1769218;78;27268;-62
2021/03/02 09:14:34;;;;;;;91.72;36.80;;;;;;;3.83;83.51;102562.74;1768600;78;25890;-60
2021/03/02 09:17:02;;;;;;;81.40;35.20;;;;;;;3.98;83.60;102574.02;1764021;79;27250;-61
2021/03/02 09:19:34;;;;;;;76.70;32.50;;;;;;;4.15;83.61;102565.86;1778575;77;25947;-61
2021/03/02 09:22:11;;;;;;;80.32;32.78;;;;;;;4.32;83.56;102567.41;1790659;77;26438;-61
2021/03/02 09:24:44;;;;;;;76.92;31.85;;;;;;;4.44;83.51;102563.59;1765658;78;26180;-60
2021/03/02 09:27:16;;;;;;;59.53;24.95;;;;;;;4.61;83.50;102573.97;1775731;77;26592;-60
2021/03/02 09:29:48;;;;;;;61.63;25.12;;;;;;;4.78;83.44;102568.86;1742020;79;27722;-61
2021/03/02 09:32:23;;;;;;;52.43;23.90;;;;;;;4.93;83.31;102577.00;1771144;77;25937;-61
2021/03/02 09:35:02;;;;;;;60.40;26.33;;;;;;;5.09;83.23;102566.98;1768965;78;26204;-61
2021/03/02 09:37:30;;;;;;;56.95;22.70;;;;;;;5.23;83.05;102561.33;1793592;77;26178;-60
2021/03/02 09:40:09;;;;;;;48.85;21.65;;;;;;;5.36;82.95;102564.09;1756880;78;25747;-61
2021/03/02 09:42:44;;;;;;;60.98;26.00;;;;;;;5.49;82.66;102563.32;1747814;78;26190;-60
2021/03/02 09:45:16;;;;;;;53.42;22.10;;;;;;;5.56;82.46;102557.17;1747681;79;26617;-61
2021/03/02 09:47:48;;;;;;;43.20;19.70;;;;;;;5.68;82.38;102557.70;1793671;78;25724;-61
2021/03/02 09:50:18;;;;;;;66.65;24.30;;;;;;;5.78;82.04;102564.88;1762270;78;25941;-61
2021/03/02 09:52:51;;;;;;;103.13;25.70;;;;;;;5.86;81.72;102563.16;1766549;78;25798;-62
2021/03/02 09:55:28;;;;;;;54.40;23.07;;;;;;;5.92;81.61;102567.22;1728046;79;27583;-60
2021/03/02 09:58:10;;;;;;;63.60;25.60;;;;;;;5.98;81.51;102567.70;1764512;78;25919;-62
2021/03/02 10:00:59;;;;;;;50.95;23.83;;;;;;;6.02;81.41;102561.08;1766172;78;25483;-62
2021/03/02 10:03:38;;;;;;;59.15;25.15;;;;;;;6.10;81.33;102570.00;1763416;78;26877;-60
2021/03/02 10:06:07;;;;;;;48.68;20.85;;;;;;;6.20;81.32;102568.27;1766109;79;25840;-60
2021/03/02 10:08:40;;;;;;;58.92;23.92;;;;;;;6.30;81.17;102567.88;1762371;78;28009;-61
2021/03/02 10:11:17;;;;;;;56.15;22.05;;;;;;;6.37;81.02;102567.03;1763432;78;25766;-60
2021/03/02 10:13:55;;;;;;;51.40;23.45;;;;;;;6.47;80.95;102566.19;1772540;78;25982;-62
2021/03/02 10:16:35;;;;;;;53.30;23.65;;;;;;;6.55;80.88;102557.78;1728764;80;26501;-60
2021/03/02 10:19:17;;;;;;;60.48;25.70;;;;;;;6.67;80.84;102560.94;1765352;78;26033;-61
2021/03/02 10:21:56;;;;;;;48.68;22.45;;;;;;;6.73;80.65;102560.95;1764849;78;28488;-61
2021/03/02 10:24:31;;;;;;;49.90;23.62;;;;;;;6.79;80.56;102569.86;1762302;77;26343;-61
2021/03/02 10:27:15;;;;;;;49.55;21.75;;;;;;;6.87;80.45;102574.32;1758019;78;25842;-61
2021/03/02 10:29:45;;;;;;;54.50;23.55;;;;;;;6.87;80.21;102559.66;1768297;78;26089;-62
2021/03/02 10:32:13;;;;;;;49.98;21.85;;;;;;;7.00;79.88;102582.80;1759649;79;25857;-61
2021/03/02 10:34:43;;;;;;;48.48;22.15;;;;;;;7.05;79.66;102575.25;1761161;78;27792;-62
2021/03/02 10:37:13;;;;;;;47.05;20.27;;;;;;;7.14;79.71;102566.38;1755869;79;25816;-62
2021/03/02 10:39:41;;;;;;;47.50;21.03;;;;;;;7.21;78.78;102577.50;1773733;78;25809;-62
2021/03/02 10:42:10;;;;;;;43.73;20.90;;;;;;;7.25;78.48;102572.63;1753160;79;25784;-62
2021/03/02 10:44:38;;;;;;;47.17;21.02;;;;;;;7.34;78.23;102565.07;1760758;78;26558;-61
2021/03/02 10:47:06;;;;;;;49.73;23.35;;;;;;;7.42;78.24;102569.52;1759691;79;28670;-62
2021/03/02 10:49:34;;;;;;;45.65;20.70;;;;;;;7.50;77.95;102566.86;1761072;78;25573;-67
2021/03/02 10:52:02;;;;;;;46.77;20.60;;;;;;;7.61;77.86;102572.19;1763766;78;25858;-66
2021/03/02 10:54:30;;;;;;;47.78;23.15;;;;;;;7.69;77.42;102567.30;1760115;78;25972;-65
2021/03/02 10:56:58;;;;;;;46.77;21.42;;;;;;;7.74;77.37;102565.95;1747814;79;25953;-65
2021/03/02 10:59:25;;;;;;;39.73;19.12;;;;;;;7.81;77.25;102569.03;1766208;78;26147;-65
2021/03/02 11:01:53;;;;;;;48.08;21.80;;;;;;;7.88;76.95;102566.79;1765076;78;26092;-66
2021/03/02 11:04:21;;;;;;;42.45;20.05;;;;;;;7.94;76.90;102557.44;1760024;79;25920;-65
2021/03/02 11:06:49;;;;;;;51.98;23.02;;;;;;;8.04;76.42;102556.52;1770820;78;26612;-66
2021/03/02 11:09:17;;;;;;;45.48;19.75;;;;;;;8.20;76.60;102544.47;1760158;78;25857;-66
2021/03/02 11:11:45;;;;;;;44.53;21.45;;;;;;;8.38;76.20;102545.32;1748942;79;28551;-65
2021/03/02 11:14:13;;;;;;;43.73;20.25;;;;;;;8.51;75.75;102550.16;1755002;78;26467;-65
2021/03/02 11:16:40;;;;;;;45.25;20.02;;;;;;;8.53;75.09;102538.13;1766529;77;25881;-65
2021/03/02 11:19:09;;;;;;;39.67;20.75;;;;;;;8.61;75.11;102541.66;1761487;78;26027;-66
2021/03/02 11:21:36;;;;;;;44.38;20.05;;;;;;;8.71;74.93;102528.23;1769032;78;25404;-66
2021/03/02 11:24:06;;;;;;;43.85;20.72;;;;;;;8.81;74.93;102527.73;1769019;77;27915;-66
2021/03/02 11:26:33;;;;;;;36.13;16.87;;;;;;;8.94;74.86;102531.22;1759855;78;26782;-68
2021/03/02 11:29:01;;;;;;;41.58;19.00;;;;;;;9.01;74.31;102529.83;1762972;78;25896;-65
2021/03/02 11:31:31;;;;;;;36.77;16.90;;;;;;;9.08;74.00;102521.31;1761138;78;28565;-66